Details From ENZV - Stavanger Lufthavn Sola
To ENBR - Bergen Lufthavn Flesland
Flight Number -
Tags Generated
Created
Modified
Stats Distance 86 nm / 160 km
Max Altitude 0 ft / 0 m
Waypoints 2
Social Downloads 22
Likes 0
Share VATSIM

Download

Looking for another format? Having issues loading an existing format? Contact us
Advertisement - Login to hide

Notes

Generated

Route

ENZV ENBR

ID Type Via Altitude Latitude Longitude Leg Dist Tot Dist Heading (true) Name
O ENZV APT - 0 ft / 0 m 58.88179˚ 5.60479˚ - 0 nm - -
O ENBR APT - 0 ft / 0 m 60.30662˚ 5.21370˚ 86 nm 86 nm 352° / 352° -

Altitude Profile

Advertisement - Login to hide

ENZV

Details ICAO ENZV (SVG)
Name Stavanger Lufthavn Sola
Region Norway
Timezone Europe/Oslo (UTC+1.0)
Stats Elevation 29 ft / 9 m (AMSL)
Location 58.880464° 5.631430°
Runways 2
Magnetic Variation 1.089° E

METAR

ENZV 121950Z VRB02KT 9999 FEW027 SCT045 M01/M02 Q0996 TEMPO 2000 BCFG SCT002

Decode

TAF

TAF AMD ENZV 121900Z 1219/1318 12005KT 9999 FEW020 SCT040 PROB30 1219/1224 2000 BCFG BKN002 BECMG 1303/1305 16015KT TEMPO 1303/1307 2000 SNRA VV009 BECMG 1307/1309 23012KT TEMPO 1307/1315 23015G25KT 4000 SHRAGS BKN014CB BECMG 1316/1318 16010KT

Decode

Departure Runways

ID Width Length Bearing (true) Bearing (mag) Surface Threshold Offset Overrun Length
11 148 ft / 45 m 8,018 ft / 2,444 m 106.32° 105.23° Asphalt 328 ft / 100 m 0 ft / 0 m
18 197 ft / 60 m 8,372 ft / 2,552 m 179.12° 178.03° Asphalt 197 ft / 60 m 0 ft / 0 m
29 148 ft / 45 m 8,018 ft / 2,444 m 286.36° 285.27° Asphalt 502 ft / 153 m 0 ft / 0 m
36 197 ft / 60 m 8,372 ft / 2,552 m 359.12° 358.03° Asphalt 0 ft / 0 m 0 ft / 0 m

ENBR

Details ICAO ENBR (BGO)
Name Bergen Lufthavn Flesland
Region Norway
Timezone Europe/Oslo (UTC+1.0)
Stats Elevation 165 ft / 50 m (AMSL)
Location 60.293388° 5.218140°
Runways 1
Magnetic Variation 0.840° E

METAR

ENBR 121950Z 13007KT 9999 FEW015 SCT028 M01/M03 Q0995 NOSIG RMK WIND 1200FT 13014KT

Decode

TAF

TAF ENBR 121700Z 1218/1318 VRB05KT 9999 FEW015 BKN030 PROB30 TEMPO 1218/1303 2000 SHSN VV009 BECMG 1300/1303 15015KT TEMPO 1305/1310 15020G30KT 2000 SNRA VV009 BECMG 1309/1311 21012KT TEMPO 1310/1315 22015G25KT 4000 SHRAGS BKN014CB BECMG 1316/1318 15010KT

Decode

Destination Runways

ID Width Length Bearing (true) Bearing (mag) Surface Threshold Offset Overrun Length
17 148 ft / 45 m 9,793 ft / 2,985 m 170.56° 169.72° Asphalt 886 ft / 270 m 0 ft / 0 m
35 148 ft / 45 m 9,793 ft / 2,985 m 350.57° 349.73° Asphalt 886 ft / 270 m 0 ft / 0 m

Approach Navaids

Runway Type Ident Frequency Range Bearing (true) Bearing (mag) Slope Elevation
17 Localiser BR 109.90 MHz 18 nm / 33 km 170.56° 169.72° - 165 ft / 50 m (AMSL)
17 Glidescope BR 109.90 MHz 10 nm / 19 km 170.56° 169.72° 3.10° 165 ft / 50 m (AMSL)
35 Localiser BG 110.50 MHz 18 nm / 33 km 350.55° 349.71° - 165 ft / 50 m (AMSL)
35 Glidescope BG 110.50 MHz 10 nm / 19 km 350.56° 349.72° 3.00° 165 ft / 50 m (AMSL)

Popular Alternatives